Time;durP1;ratioP1;P1;durP2;ratioP2;P2;SDS_P1;SDS_P2;PMS_P1;PMS_P2;Temp;Humidity;BMP_temperature;BMP_pressure;BME280_temperature;BME280_humidity;BME280_pressure;Samples;Min_cycle;Max_cycle;Signal;HPM_P1;HPM_P2
2024/03/09 00:01:12;;;;;;;;;73.33;56.33;;;;;6.09;100.00;99778.78;6308546;20;3631204;-53
2024/03/09 00:03:41;;;;;;;;;67.67;52.00;;;;;6.06;100.00;99772.72;6308780;20;3640887;-50
2024/03/09 00:06:12;;;;;;;;;68.00;53.00;;;;;5.92;100.00;99770.56;6309961;20;3631625;-52
2024/03/09 00:08:44;;;;;;;;;67.67;51.33;;;;;6.06;100.00;99783.38;6305415;20;3640905;-51
2024/03/09 00:11:14;;;;;;;;;71.00;55.33;;;;;6.03;100.00;99775.47;6308696;20;2875489;-52
2024/03/09 00:13:44;;;;;;;;;77.00;55.33;;;;;6.01;100.00;99772.91;6309111;20;3613983;-54
2024/03/09 00:16:14;;;;;;;;;65.67;52.00;;;;;5.92;100.00;99774.13;6307475;20;3627436;-54
2024/03/09 00:18:44;;;;;;;;;66.33;53.33;;;;;6.16;100.00;99774.03;6310189;20;2858644;-51
2024/03/09 00:21:14;;;;;;;;;69.67;52.67;;;;;6.44;100.00;99770.22;6309315;20;3644025;-56
2024/03/09 00:23:48;;;;;;;;;64.00;50.00;;;;;5.99;100.00;99771.22;6276137;20;3612804;-54
2024/03/09 00:26:18;;;;;;;;;69.00;55.00;;;;;6.15;100.00;99767.84;6309158;20;3620200;-55
2024/03/09 00:28:47;;;;;;;;;68.00;53.33;;;;;6.02;100.00;99771.09;6310302;20;2869622;-57
2024/03/09 00:31:17;;;;;;;;;70.67;50.33;;;;;6.31;100.00;99764.53;6307276;20;3647156;-52
2024/03/09 00:33:49;;;;;;;;;67.33;54.00;;;;;6.20;100.00;99770.31;6306006;20;2871043;-57
2024/03/09 00:36:18;;;;;;;;;76.33;56.67;;;;;6.05;100.00;99762.97;6308052;20;3639834;-57
2024/03/09 00:38:48;;;;;;;;;74.00;54.33;;;;;5.95;100.00;99754.50;6308401;20;3630570;-55
2024/03/09 00:41:18;;;;;;;;;71.00;51.33;;;;;5.93;100.00;99751.91;6306875;20;3650309;-55
2024/03/09 00:43:48;;;;;;;;;67.33;52.00;;;;;6.12;100.00;99756.47;6309171;20;3629527;-52
2024/03/09 00:46:17;;;;;;;;;73.00;53.00;;;;;5.84;100.00;99762.03;6308308;20;2772143;-56
2024/03/09 00:48:46;;;;;;;;;73.00;54.00;;;;;6.01;100.00;99748.06;6274205;20;2778447;-52
2024/03/09 00:51:16;;;;;;;;;66.67;52.33;;;;;5.86;100.00;99750.38;6274278;20;3641947;-52
2024/03/09 00:53:45;;;;;;;;;70.67;56.00;;;;;5.85;100.00;99743.31;6304802;20;2867120;-50
2024/03/09 00:56:15;;;;;;;;;80.33;57.33;;;;;5.85;100.00;99738.00;6307113;20;3640984;-53
2024/03/09 00:58:45;;;;;;;;;73.00;58.00;;;;;5.78;100.00;99741.84;6309332;20;2869093;-51
2024/03/09 01:01:15;;;;;;;;;74.33;59.00;;;;;5.87;100.00;99733.47;6277305;20;2870965;-51
2024/03/09 01:03:45;;;;;;;;;75.00;55.00;;;;;6.11;100.00;99734.28;6307918;20;3515901;-53
2024/03/09 01:06:15;;;;;;;;;76.33;58.00;;;;;6.06;100.00;99730.06;6305408;20;3635714;-53
2024/03/09 01:08:44;;;;;;;;;76.67;55.00;;;;;6.23;100.00;99729.34;6307714;20;3620095;-52
2024/03/09 01:11:14;;;;;;;;;76.67;56.67;;;;;5.80;100.00;99718.66;6309218;20;3627357;-54
2024/03/09 01:13:44;;;;;;;;;73.67;54.00;;;;;6.11;100.00;99717.41;6306534;20;3650295;-54
2024/03/09 01:16:14;;;;;;;;;67.00;48.00;;;;;6.08;100.00;99721.09;6309074;20;2880536;-52
2024/03/09 01:18:44;;;;;;;;;76.00;57.33;;;;;6.04;100.00;99715.94;6308102;20;3616956;-53
2024/03/09 01:21:14;;;;;;;;;73.33;53.67;;;;;6.11;100.00;99712.09;6307074;20;3644029;-53
2024/03/09 01:23:44;;;;;;;;;68.67;53.00;;;;;5.81;100.00;99715.06;6308747;20;3647170;-51
2024/03/09 01:26:14;;;;;;;;;67.00;52.00;;;;;6.20;100.00;99711.69;6307258;20;3629446;-54
2024/03/09 01:28:45;;;;;;;;;74.00;55.00;;;;;6.32;100.00;99707.63;6308282;20;3651337;-55
2024/03/09 01:31:16;;;;;;;;;69.33;53.00;;;;;5.90;100.00;99709.38;6303780;20;3626404;-49
2024/03/09 01:33:46;;;;;;;;;75.00;57.00;;;;;6.08;100.00;99702.44;6305512;20;3627418;-48
2024/03/09 01:36:14;;;;;;;;;67.00;51.00;;;;;6.15;100.00;99697.69;6306020;20;2753437;-48
2024/03/09 01:38:44;;;;;;;;;72.33;53.33;;;;;6.10;100.00;99705.00;6281364;20;3632584;-51
2024/03/09 01:41:14;;;;;;;;;72.33;57.33;;;;;6.13;100.00;99705.75;6307749;20;3629522;-53
2024/03/09 01:43:46;;;;;;;;;74.00;58.00;;;;;6.18;100.00;99694.00;6307229;20;3605560;-53
2024/03/09 01:46:19;;;;;;;;;74.00;57.67;;;;;6.19;100.00;99698.41;6306402;20;3615912;-51
2024/03/09 01:48:49;;;;;;;;;78.00;58.33;;;;;6.04;100.00;99689.28;6307457;20;3629941;-54
2024/03/09 01:51:19;;;;;;;;;75.67;56.67;;;;;6.24;100.00;99704.41;6307460;20;3635821;-55
2024/03/09 01:53:53;;;;;;;;;71.33;50.00;;;;;6.13;100.00;99688.88;6306448;20;3649241;-52
2024/03/09 01:56:27;;;;;;;;;74.33;54.33;;;;;6.21;100.00;99689.41;6305708;20;3636827;-50
2024/03/09 01:58:57;;;;;;;;;73.67;56.00;;;;;6.30;100.00;99697.00;6307201;20;3634709;-53
2024/03/09 02:01:27;;;;;;;;;75.67;54.67;;;;;6.16;100.00;99686.06;6305276;20;3635706;-49
2024/03/09 02:03:57;;;;;;;;;76.67;58.33;;;;;6.10;100.00;99683.69;6307684;20;3640415;-50
2024/03/09 02:06:28;;;;;;;;;67.00;50.67;;;;;5.76;100.00;99685.06;6275303;20;3641037;-48
2024/03/09 02:08:57;;;;;;;;;74.00;56.00;;;;;6.07;100.00;99675.81;6308135;20;3639843;-51
2024/03/09 02:11:30;;;;;;;;;77.67;60.00;;;;;5.94;100.00;99683.47;6306828;20;3630854;-53
2024/03/09 02:14:01;;;;;;;;;75.33;56.00;;;;;6.06;100.00;99692.75;6304730;20;3613850;-50
2024/03/09 02:16:31;;;;;;;;;77.50;55.00;;;;;6.03;100.00;99683.09;6306177;20;3602451;-54
2024/03/09 02:19:01;;;;;;;;;76.33;57.00;;;;;6.07;100.00;99681.16;6306142;20;3610656;-50
2024/03/09 02:21:31;;;;;;;;;82.33;60.67;;;;;5.85;100.00;99684.72;6305646;20;3637774;-47
2024/03/09 02:24:14;;;;;;;;;72.67;55.33;;;;;5.86;100.00;99681.09;6270526;20;3607537;-50
2024/03/09 02:26:43;;;;;;;;;75.00;53.00;;;;;5.43;100.00;99672.25;6302371;20;3637735;-50
2024/03/09 02:29:13;;;;;;;;;74.67;57.00;;;;;5.77;100.00;99678.84;6306655;20;3622153;-55
2024/03/09 02:31:42;;;;;;;;;74.33;57.00;;;;;5.33;100.00;99676.19;6306665;20;3634656;-49
2024/03/09 02:34:11;;;;;;;;;75.00;57.33;;;;;5.48;100.00;99658.75;6272024;20;3611738;-52
2024/03/09 02:36:42;;;;;;;;;74.33;55.67;;;;;5.67;100.00;99657.03;6306336;20;3627378;-52
2024/03/09 02:39:11;;;;;;;;;74.67;55.33;;;;;5.60;100.00;99652.03;6306584;20;3643730;-50
2024/03/09 02:41:41;;;;;;;;;76.33;58.67;;;;;5.58;100.00;99652.13;6273232;20;3629477;-48
2024/03/09 02:44:12;;;;;;;;;70.00;53.33;;;;;5.73;100.00;99654.09;6303664;20;3641016;-50
2024/03/09 02:46:42;;;;;;;;;68.33;53.33;;;;;5.70;100.00;99650.72;6304740;20;3631499;-50
2024/03/09 02:49:12;;;;;;;;;68.33;53.33;;;;;5.97;100.00;99650.50;6304494;20;3634797;-50
2024/03/09 02:51:41;;;;;;;;;73.50;52.50;;;;;5.41;100.00;99650.13;6289521;20;4396050;-53
2024/03/09 02:54:11;;;;;;;;;71.67;56.00;;;;;5.37;100.00;99644.97;6303752;20;3616923;-52
2024/03/09 02:56:40;;;;;;;;;79.67;55.67;;;;;5.58;100.00;99648.56;6304185;20;3649194;-52
2024/03/09 02:59:10;;;;;;;;;75.67;58.67;;;;;5.42;100.00;99640.34;6301655;20;3634629;-52
2024/03/09 03:01:40;;;;;;;;;68.50;53.50;;;;;5.63;100.00;99639.44;6300380;20;2882777;-52
2024/03/09 03:04:11;;;;;;;;;77.33;56.00;;;;;5.54;100.00;99642.50;6303387;20;3626331;-51
2024/03/09 03:06:41;;;;;;;;;68.00;52.33;;;;;5.56;100.00;99645.13;6303885;20;3634632;-52
2024/03/09 03:09:11;;;;;;;;;70.33;54.00;;;;;5.86;100.00;99643.81;6306971;20;3639846;-48
2024/03/09 03:11:42;;;;;;;;;73.00;55.00;;;;;5.64;100.00;99645.66;6305839;20;3645153;-48
2024/03/09 03:14:12;;;;;;;;;69.00;52.67;;;;;5.58;100.00;99645.91;6305064;20;3626308;-52
2024/03/09 03:16:41;;;;;;;;;68.00;55.00;;;;;5.11;100.00;99646.94;6305339;20;3622125;-48
2024/03/09 03:19:11;;;;;;;;;72.00;55.67;;;;;5.63;100.00;99649.22;6304149;20;3632674;-55
2024/03/09 03:21:40;;;;;;;;;56.67;48.33;;;;;5.57;100.00;99644.19;6306027;20;2866930;-49
2024/03/09 03:24:10;;;;;;;;;74.33;56.00;;;;;5.90;100.00;99647.22;6308421;20;3636733;-52
2024/03/09 03:26:39;;;;;;;;;71.50;53.50;;;;;5.33;100.00;99644.25;6283533;20;2828452;-49
2024/03/09 03:29:09;;;;;;;;;68.33;53.67;;;;;5.48;100.00;99643.63;6317607;20;3629532;-54
2024/03/09 03:31:41;;;;;;;;;73.67;53.00;;;;;5.63;100.00;99651.91;6316181;20;3647137;-51
2024/03/09 03:34:11;;;;;;;;;75.00;56.00;;;;;5.61;100.00;99654.66;6314905;20;3637772;-51
2024/03/09 03:36:42;;;;;;;;;70.33;55.00;;;;;5.79;100.00;99658.31;6316255;20;3630487;-51
2024/03/09 03:39:12;;;;;;;;;70.00;53.67;;;;;5.89;100.00;99656.97;6316477;20;3628404;-48
2024/03/09 03:41:43;;;;;;;;;68.33;53.00;;;;;5.79;100.00;99655.63;6316684;20;3640910;-55
2024/03/09 03:44:14;;;;;;;;;65.33;51.00;;;;;5.93;100.00;99661.28;6316531;20;3612813;-54
2024/03/09 03:46:43;;;;;;;;;66.33;50.33;;;;;6.06;100.00;99656.31;6315678;20;3627350;-51
2024/03/09 03:49:13;;;;;;;;;67.33;54.67;;;;;5.81;100.00;99656.44;6316286;20;2868226;-51
2024/03/09 03:51:43;;;;;;;;;68.00;53.00;;;;;5.70;100.00;99659.56;6316129;20;3620248;-50
2024/03/09 03:54:12;;;;;;;;;66.33;48.33;;;;;5.76;100.00;99663.75;6315206;20;3629499;-53
2024/03/09 03:56:42;;;;;;;;;75.67;55.00;;;;;5.75;100.00;99656.72;6315039;20;3650253;-48
2024/03/09 03:59:11;;;;;;;;;65.33;53.33;;;;;5.93;100.00;99655.97;6314147;20;2873294;-50
2024/03/09 04:01:41;;;;;;;;;68.67;51.33;;;;;5.58;100.00;99656.53;6314345;20;3643062;-51
2024/03/09 04:04:11;;;;;;;;;66.67;51.67;;;;;5.43;100.00;99652.75;6314135;20;3636743;-50
2024/03/09 04:06:44;;;;;;;;;63.67;50.00;;;;;5.69;100.00;99641.88;6316552;20;3629838;-50
2024/03/09 04:09:13;;;;;;;;;64.33;50.67;;;;;5.67;100.00;99643.72;6317194;20;3621088;-50
2024/03/09 04:11:43;;;;;;;;;69.33;53.67;;;;;5.57;100.00;99646.84;6313100;20;3644207;-51
2024/03/09 04:14:17;;;;;;;;;68.00;53.33;;;;;5.72;100.00;99664.84;6313737;20;3627375;-52
2024/03/09 04:16:46;;;;;;;;;62.00;49.00;;;;;5.50;100.00;99657.75;6315155;20;2864895;-53
2024/03/09 04:19:15;;;;;;;;;63.67;50.33;;;;;5.40;100.00;99653.75;6282659;20;3639888;-51
2024/03/09 04:21:45;;;;;;;;;64.67;52.33;;;;;5.34;100.00;99653.97;6316251;20;2863863;-52
2024/03/09 04:24:15;;;;;;;;;72.67;55.33;;;;;5.42;100.00;99646.53;6313379;20;3637765;-51
2024/03/09 04:26:45;;;;;;;;;73.00;56.00;;;;;5.75;100.00;99650.53;6314922;20;3636734;-51
2024/03/09 04:29:15;;;;;;;;;74.00;55.67;;;;;5.57;100.00;99652.16;6315248;20;3643991;-48
2024/03/09 04:31:44;;;;;;;;;76.00;55.33;;;;;5.62;100.00;99652.84;6315292;20;3625274;-52
2024/03/09 04:34:15;;;;;;;;;65.67;53.33;;;;;5.78;100.00;99643.25;6313097;20;3624197;-50
2024/03/09 04:36:45;;;;;;;;;66.33;52.67;;;;;5.44;100.00;99652.66;6311805;20;3631503;-48
2024/03/09 04:39:18;;;;;;;;;65.33;52.33;;;;;5.18;100.00;99644.88;6309572;20;3631491;-51
2024/03/09 04:41:48;;;;;;;;;80.33;60.00;;;;;5.33;100.00;99636.28;6306743;20;3646235;-53
2024/03/09 04:44:17;;;;;;;;;72.67;54.67;;;;;5.00;100.00;99636.72;6307619;20;3619043;-51
2024/03/09 04:46:58;;;;;;;;;70.00;53.67;;;;;5.48;100.00;99648.09;6307948;20;3632584;-52
2024/03/09 04:49:28;;;;;;;;;76.67;58.33;;;;;5.56;100.00;99650.44;6306872;20;3625328;-51
2024/03/09 04:51:58;;;;;;;;;69.33;51.67;;;;;5.24;100.00;99645.50;6307779;20;3632619;-51
2024/03/09 04:54:27;;;;;;;;;70.33;53.67;;;;;4.96;100.00;99645.72;6307229;20;3612782;-54
2024/03/09 04:56:57;;;;;;;;;69.67;55.00;;;;;5.07;100.00;99642.63;6308343;20;3599325;-49
2024/03/09 04:59:27;;;;;;;;;71.33;54.33;;;;;5.10;100.00;99641.66;6301681;20;3641009;-52
2024/03/09 05:01:57;;;;;;;;;72.67;57.00;;;;;5.45;100.00;99645.53;6305965;20;3625968;-51
2024/03/09 05:04:26;;;;;;;;;67.67;55.33;;;;;5.24;100.00;99650.84;6306333;20;3612800;-52
2024/03/09 05:06:56;;;;;;;;;72.33;53.67;;;;;5.25;100.00;99651.69;6308432;20;3655843;-51
2024/03/09 05:09:26;;;;;;;;;77.33;58.33;;;;;5.33;100.00;99652.25;6274806;20;3641003;-51
2024/03/09 05:11:56;;;;;;;;;68.67;54.67;;;;;5.26;100.00;99658.72;6305648;20;3629462;-52
2024/03/09 05:14:26;;;;;;;;;68.33;54.00;;;;;5.36;100.00;99661.91;6306219;20;3627533;-52
2024/03/09 05:16:56;;;;;;;;;72.67;52.67;;;;;4.98;100.00;99670.50;6308026;20;3654415;-54
2024/03/09 05:19:26;;;;;;;;;66.00;53.67;;;;;5.19;100.00;99663.44;6272728;20;2869102;-49
2024/03/09 05:21:56;;;;;;;;;69.67;53.00;;;;;4.99;100.00;99664.22;6307141;20;3620162;-53
2024/03/09 05:24:26;;;;;;;;;69.67;53.33;;;;;5.12;100.00;99675.25;6303649;20;3637778;-52
2024/03/09 05:26:56;;;;;;;;;74.33;55.00;;;;;4.82;100.00;99658.72;6308577;20;3655506;-49
2024/03/09 05:29:26;;;;;;;;;78.00;55.67;;;;;4.96;100.00;99661.69;6275658;20;3652502;-53
2024/03/09 05:31:56;;;;;;;;;77.00;56.67;;;;;4.71;100.00;99655.56;6304231;20;3627340;-50
2024/03/09 05:34:25;;;;;;;;;69.00;53.00;;;;;4.92;100.00;99657.41;6303730;20;3624243;-49
2024/03/09 05:36:55;;;;;;;;;69.33;55.00;;;;;4.94;100.00;99652.03;6304675;20;3632651;-51
2024/03/09 05:39:25;;;;;;;;;70.33;54.33;;;;;4.89;100.00;99657.53;6306224;20;3644232;-51
2024/03/09 05:41:55;;;;;;;;;72.67;55.00;;;;;4.75;100.00;99659.88;6308184;20;3636785;-50
2024/03/09 05:44:24;;;;;;;;;67.67;51.00;;;;;4.73;100.00;99651.06;6306184;20;3629437;-49
2024/03/09 05:46:54;;;;;;;;;74.33;57.33;;;;;4.46;100.00;99656.50;6306259;20;2860941;-51
2024/03/09 05:49:23;;;;;;;;;74.00;55.67;;;;;4.68;100.00;99651.25;6306102;20;3639834;-50
2024/03/09 05:51:54;;;;;;;;;71.33;56.67;;;;;4.74;100.00;99644.81;6307992;20;2878486;-52
2024/03/09 05:54:24;;;;;;;;;71.67;55.00;;;;;4.62;100.00;99651.47;6306650;20;3640889;-53
2024/03/09 05:56:53;;;;;;;;;71.67;53.33;;;;;4.80;100.00;99657.91;6305872;20;3626293;-52
2024/03/09 05:59:23;;;;;;;;;69.67;53.67;;;;;4.99;100.00;99656.25;6307558;20;3624248;-53
2024/03/09 06:01:52;;;;;;;;;68.67;55.00;;;;;4.85;100.00;99669.22;6305660;20;3621110;-53
2024/03/09 06:04:22;;;;;;;;;71.67;57.33;;;;;4.90;100.00;99677.91;6306193;20;2867220;-53
2024/03/09 06:06:52;;;;;;;;;74.67;55.67;;;;;5.04;100.00;99674.69;6307305;20;3643016;-54
2024/03/09 06:09:23;;;;;;;;;74.33;56.67;;;;;5.56;100.00;99677.06;6305659;20;3634672;-52
2024/03/09 06:11:52;;;;;;;;;74.33;55.33;;;;;6.21;100.00;99689.41;6305722;20;3649212;-54
2024/03/09 06:14:23;;;;;;;;;64.67;51.67;;;;;5.21;100.00;99677.56;6305296;20;2875412;-53
2024/03/09 06:16:53;;;;;;;;;68.33;54.33;;;;;5.08;100.00;99676.28;6302919;20;3629562;-53
2024/03/09 06:19:23;;;;;;;;;67.00;49.00;;;;;5.09;100.00;99672.72;6305345;20;3645061;-53
2024/03/09 06:21:53;;;;;;;;;72.33;55.67;;;;;5.35;100.00;99674.34;6305968;20;3631488;-48
2024/03/09 06:24:23;;;;;;;;;67.33;52.67;;;;;4.97;100.00;99679.38;6305276;20;3626515;-49
2024/03/09 06:26:52;;;;;;;;;66.67;50.00;;;;;5.02;100.00;99682.72;6304884;20;3634635;-50
2024/03/09 06:29:23;;;;;;;;;71.00;53.33;;;;;5.12;100.00;99674.41;6304105;20;3634799;-55
2024/03/09 06:31:52;;;;;;;;;71.67;55.00;;;;;4.98;100.00;99675.81;6305590;20;3639841;-54
2024/03/09 06:34:23;;;;;;;;;67.33;53.00;;;;;4.94;100.00;99673.31;6305216;20;3629421;-52
2024/03/09 06:36:55;;;;;;;;;72.00;54.00;;;;;4.85;100.00;99679.88;6303656;20;3636713;-53
2024/03/09 06:39:30;;;;;;;;;71.33;53.33;;;;;5.21;100.00;99687.31;6305678;20;3627334;-53
2024/03/09 06:42:00;;;;;;;;;72.67;53.00;;;;;5.13;100.00;99679.66;6305895;20;3644116;-53
2024/03/09 06:44:29;;;;;;;;;73.67;53.00;;;;;5.66;100.00;99689.06;6305591;20;3645072;-51
2024/03/09 06:46:59;;;;;;;;;70.00;53.00;;;;;5.00;100.00;99689.03;6269765;20;3628526;-52
2024/03/09 06:49:30;;;;;;;;;70.33;53.00;;;;;5.46;100.00;99696.06;6304411;20;3644055;-55
2024/03/09 06:52:00;;;;;;;;;69.33;54.67;;;;;6.11;100.00;99693.44;6303154;20;3635761;-52
2024/03/09 06:54:29;;;;;;;;;70.67;52.33;;;;;6.02;100.00;99696.47;6303886;20;3636800;-51
2024/03/09 06:57:00;;;;;;;;;67.67;51.33;;;;;6.51;100.00;99694.34;6298469;20;3620181;-50
2024/03/09 06:59:29;;;;;;;;;76.00;54.00;;;;;7.54;100.00;99698.41;6303589;20;3639875;-51
2024/03/09 07:01:59;;;;;;;;;114.50;99.00;;;;;7.79;100.00;99698.03;6301268;20;1946338;-51
2024/03/09 07:04:29;;;;;;;;;64.00;48.67;;;;;8.26;100.00;99704.59;6269631;20;3631526;-47
2024/03/09 07:06:58;;;;;;;;;63.00;48.00;;;;;7.21;100.00;99707.09;6304382;20;3637859;-53
2024/03/09 07:09:29;;;;;;;;;58.67;44.67;;;;;6.77;100.00;99696.69;6306790;20;3617058;-55
2024/03/09 07:11:59;;;;;;;;;61.67;48.33;;;;;6.40;100.00;99692.16;6306703;20;3621173;-54
2024/03/09 07:14:29;;;;;;;;;55.00;45.33;;;;;7.31;100.00;99703.97;6304966;20;2856735;-54
2024/03/09 07:16:58;;;;;;;;;72.33;54.67;;;;;8.26;100.00;99696.56;6307860;20;3635739;-51
2024/03/09 07:19:28;;;;;;;;;79.67;60.33;;;;;8.43;100.00;99701.94;6272601;20;3645103;-52
2024/03/09 07:21:57;;;;;;;;;58.00;47.33;;;;;8.35;100.00;99698.78;6270349;20;3623538;-53
2024/03/09 07:24:29;;;;;;;;;53.67;43.00;;;;;7.85;100.00;99702.22;6303194;20;2863887;-50
2024/03/09 07:26:59;;;;;;;;;51.00;42.67;;;;;7.68;100.00;99695.88;6306487;20;2857615;-52
2024/03/09 07:29:30;;;;;;;;;46.67;39.67;;;;;9.13;100.00;99699.06;6302187;20;2857810;-50
2024/03/09 07:31:59;;;;;;;;;49.67;41.00;;;;;7.91;100.00;99713.47;6302324;20;3610709;-49
2024/03/09 07:34:30;;;;;;;;;42.33;36.00;;;;;9.28;100.00;99708.94;6302646;20;2859877;-51
2024/03/09 07:37:00;;;;;;;;;45.67;38.33;;;;;9.68;95.88;99706.66;6305224;20;2855516;-49
2024/03/09 07:39:30;;;;;;;;;50.33;39.67;;;;;8.28;98.73;99703.56;6304095;20;2867134;-48
2024/03/09 07:41:59;;;;;;;;;50.33;40.67;;;;;9.58;97.51;99709.00;6304361;20;3623294;-48
2024/03/09 07:44:31;;;;;;;;;46.00;37.33;;;;;9.04;96.67;99710.31;6305009;20;2845107;-47
2024/03/09 07:47:00;;;;;;;;;51.00;40.00;;;;;9.66;93.74;99713.94;6305853;20;3612767;-49
2024/03/09 07:49:29;;;;;;;;;36.67;32.67;;;;;9.64;93.35;99705.13;6305092;20;3603413;-53
2024/03/09 07:51:58;;;;;;;;;45.67;38.33;;;;;9.62;95.44;99712.38;6273917;20;2862797;-48
2024/03/09 07:54:27;;;;;;;;;44.00;37.00;;;;;10.09;89.93;99717.66;6308072;20;3485717;-48
2024/03/09 07:56:56;;;;;;;;;46.67;38.67;;;;;9.87;91.24;99712.72;6303180;20;3605865;-47
2024/03/09 07:59:26;;;;;;;;;50.33;40.67;;;;;10.07;88.80;99707.97;6305955;20;3612788;-49
2024/03/09 08:01:55;;;;;;;;;46.33;38.00;;;;;9.22;91.69;99706.59;6305442;20;3593672;-49
2024/03/09 08:04:23;;;;;;;;;50.50;38.50;;;;;9.14;96.99;99698.13;6271774;20;2457618;-47
2024/03/09 08:06:54;;;;;;;;;43.00;36.00;;;;;8.95;97.82;99696.47;6267737;20;2854718;-47
2024/03/09 08:09:22;;;;;;;;;45.50;39.00;;;;;9.65;95.27;99701.50;6268830;20;2845109;-47
2024/03/09 08:11:51;;;;;;;;;45.50;39.50;;;;;8.68;99.15;99696.13;6276904;20;2850323;-47
2024/03/09 08:14:25;;;;;;;;;51.33;41.00;;;;;8.59;94.62;99693.09;6279177;20;3621197;-49
2024/03/09 08:16:55;;;;;;;;;54.00;42.67;;;;;9.83;94.61;99696.88;6309814;20;2866044;-47
2024/03/09 08:19:24;;;;;;;;;44.50;37.00;;;;;9.75;93.83;99691.97;6308458;20;2848258;-49
2024/03/09 08:21:53;;;;;;;;;51.67;42.00;;;;;8.76;97.16;99685.03;6278340;20;2864984;-48
2024/03/09 08:24:23;;;;;;;;;48.00;36.33;;;;;8.26;95.79;99675.16;6310138;20;3615958;-46
2024/03/09 08:26:51;;;;;;;;;48.00;39.00;;;;;9.09;96.62;99682.31;6308939;20;2570226;-48
2024/03/09 08:29:20;;;;;;;;;50.33;39.33;;;;;9.69;92.37;99692.34;6276761;20;3607606;-46
2024/03/09 08:31:51;;;;;;;;;49.33;41.00;;;;;9.91;89.70;99691.06;6308206;20;3597151;-50
2024/03/09 08:34:21;;;;;;;;;48.00;39.00;;;;;9.57;90.97;99693.03;6307987;20;2860844;-51
2024/03/09 08:36:51;;;;;;;;;41.67;35.67;;;;;9.38;88.81;99696.75;6312892;20;3593061;-50
2024/03/09 08:39:20;;;;;;;;;45.00;37.00;;;;;10.23;90.78;99692.69;6275325;20;2849413;-50
2024/03/09 08:41:49;;;;;;;;;48.33;38.33;;;;;9.77;86.44;99706.16;6278084;20;3598227;-53
2024/03/09 08:44:19;;;;;;;;;46.00;36.33;;;;;10.87;85.90;99697.78;6275912;20;2861808;-47
2024/03/09 08:46:48;;;;;;;;;45.50;38.50;;;;;10.48;87.10;99707.38;6308339;20;2846149;-48
2024/03/09 08:49:20;;;;;;;;;43.00;36.50;;;;;10.25;84.49;99712.25;6275766;20;2839877;-49
2024/03/09 08:51:49;;;;;;;;;42.00;36.00;;;;;9.73;87.88;99703.72;6279823;20;2848230;-47
2024/03/09 08:54:18;;;;;;;;;39.00;34.50;;;;;10.00;86.31;99717.34;6275953;20;2846320;-47
2024/03/09 08:56:54;;;;;;;;;45.67;38.67;;;;;9.46;87.17;99707.03;6276338;20;2854690;-50
2024/03/09 08:59:22;;;;;;;;;42.67;36.00;;;;;10.13;88.11;99714.81;6313767;20;3608618;-50
2024/03/09 09:01:52;;;;;;;;;46.33;38.00;;;;;9.83;87.70;99711.16;6275266;20;2854531;-49
2024/03/09 09:04:24;;;;;;;;;40.00;36.00;;;;;9.77;86.76;99705.25;6306800;20;2849340;-50
2024/03/09 09:06:53;;;;;;;;;37.67;33.67;;;;;9.35;91.18;99710.34;6279198;20;3585695;-51
2024/03/09 09:09:25;;;;;;;;;48.33;40.33;;;;;9.76;89.48;99712.44;6307510;20;2866012;-49
2024/03/09 09:11:54;;;;;;;;;45.67;37.00;;;;;9.89;90.47;99708.09;6311452;20;3594062;-52
2024/03/09 09:14:23;;;;;;;;;39.00;34.00;;;;;10.18;88.43;99704.66;6277291;20;2852364;-51
2024/03/09 09:16:53;;;;;;;;;52.00;42.00;;;;;10.82;87.24;99700.78;6279544;20;2864989;-49
2024/03/09 09:19:22;;;;;;;;;48.00;39.33;;;;;10.81;88.94;99699.03;6311989;20;3604459;-48
2024/03/09 09:21:51;;;;;;;;;38.00;34.00;;;;;10.73;87.05;99701.34;6275939;20;2838003;-49
2024/03/09 09:24:21;;;;;;;;;44.00;36.00;;;;;10.45;87.15;99699.47;6306595;20;3602460;-51
2024/03/09 09:26:50;;;;;;;;;50.00;38.33;;;;;10.56;83.33;99702.38;6312254;20;3615925;-52
2024/03/09 09:29:18;;;;;;;;;45.00;36.50;;;;;11.05;84.81;99707.38;6276861;20;2844232;-51
2024/03/09 09:31:47;;;;;;;;;48.00;37.00;;;;;11.30;80.27;99700.44;6281579;20;3588161;-50
2024/03/09 09:34:16;;;;;;;;;42.00;35.50;;;;;10.05;82.09;99699.16;6275375;20;2843062;-49
2024/03/09 09:36:46;;;;;;;;;42.50;36.00;;;;;11.13;82.83;99697.00;6277893;20;2845212;-52
2024/03/09 09:39:20;;;;;;;;;448.33;425.17;;;;;10.89;85.51;99701.25;6185113;20;7385621;-49
2024/03/09 09:41:56;;;;;;;;;46.00;37.00;;;;;10.43;83.60;99693.34;6276850;20;2728458;-51
2024/03/09 09:44:28;;;;;;;;;47.00;39.33;;;;;10.27;84.34;99694.28;6306907;20;3601334;-48
2024/03/09 09:46:59;;;;;;;;;43.33;36.00;;;;;10.32;82.26;99700.25;6307664;20;2852383;-49
2024/03/09 09:49:27;;;;;;;;;44.00;38.50;;;;;10.95;82.85;99698.16;6309605;20;2850274;-51
2024/03/09 09:51:56;;;;;;;;;44.50;36.50;;;;;11.91;79.44;99703.66;6275951;20;2836754;-49
2024/03/09 09:54:27;;;;;;;;;44.00;35.67;;;;;11.45;80.97;99699.44;6273299;20;2854756;-53
2024/03/09 09:56:57;;;;;;;;;42.00;33.33;;;;;11.19;78.29;99685.88;6310099;20;3603383;-50
2024/03/09 09:59:30;;;;;;;;;39.33;34.00;;;;;12.07;78.23;99683.69;6279841;20;3576314;-50
2024/03/09 10:01:58;;;;;;;;;48.00;39.00;;;;;11.79;77.76;99683.78;6275132;20;2855495;-51
2024/03/09 10:04:28;;;;;;;;;47.33;40.00;;;;;12.10;78.37;99687.13;6274396;20;2859833;-52
2024/03/09 10:07:08;;;;;;;;;42.33;35.67;;;;;11.87;75.78;99689.53;6308788;20;3595052;-48
2024/03/09 10:09:38;;;;;;;;;46.00;37.33;;;;;11.61;77.78;99675.97;6276493;20;2846161;-54
2024/03/09 10:12:22;;;;;;;;;45.00;38.00;;;;;11.43;79.41;99669.97;6311136;20;3597129;-58
2024/03/09 10:14:52;;;;;;;;;45.00;37.00;;;;;11.41;77.67;99677.28;6272933;20;2841975;-53
2024/03/09 10:17:21;;;;;;;;;38.67;32.67;;;;;11.38;75.21;99671.25;6276321;20;3594075;-51
2024/03/09 10:19:50;;;;;;;;;38.50;34.00;;;;;11.25;78.05;99667.63;6273106;20;2848209;-54
2024/03/09 10:22:20;;;;;;;;;44.00;36.33;;;;;11.98;76.82;99670.88;6275306;20;2855546;-56
2024/03/09 10:24:54;;;;;;;;;42.33;33.67;;;;;11.55;77.08;99668.31;6309179;20;3589848;-50
2024/03/09 10:27:26;;;;;;;;;32.67;29.00;;;;;11.15;78.08;99672.72;6275791;20;3588863;-50
2024/03/09 10:30:11;;;;;;;;;39.00;34.50;;;;;11.11;78.75;99661.31;6274269;20;2852501;-55
2024/03/09 10:32:43;;;;;;;;;38.50;34.50;;;;;11.70;78.76;99665.56;6272785;20;2850380;-52
2024/03/09 10:35:14;;;;;;;;;33.33;29.33;;;;;10.25;81.29;99653.22;6273688;20;3615934;-53
2024/03/09 10:37:43;;;;;;;;;37.50;33.00;;;;;10.71;82.35;99653.09;6274818;20;2845171;-54
2024/03/09 10:40:12;;;;;;;;;47.00;38.00;;;;;11.12;81.69;99649.59;6273768;20;2866051;-54
2024/03/09 10:42:45;;;;;;;;;46.00;37.67;;;;;11.17;79.09;99647.47;6310319;20;3588853;-51
2024/03/09 10:45:22;;;;;;;;;44.00;36.00;;;;;10.83;78.43;99645.25;6271215;20;2861941;-55
2024/03/09 10:47:57;;;;;;;;;48.33;40.00;;;;;11.23;78.29;99640.00;6310880;20;3601392;-51
2024/03/09 10:50:35;;;;;;;;;43.67;37.67;;;;;11.26;76.35;99639.78;6274685;20;2853508;-52
2024/03/09 10:53:09;;;;;;;;;40.00;34.33;;;;;12.00;73.42;99647.38;6303267;20;3588876;-52
2024/03/09 10:56:19;;;;;;;;;36.00;33.67;;;;;12.28;72.21;99629.34;6275738;20;3587754;-56
2024/03/09 10:58:53;;;;;;;;;41.00;36.00;;;;;12.17;72.81;99640.00;6269218;20;2855515;-52
2024/03/09 11:01:23;;;;;;;;;38.00;34.33;;;;;11.99;73.57;99629.53;6310773;20;3612787;-51
2024/03/09 11:03:53;;;;;;;;;37.50;34.00;;;;;12.13;73.28;99608.88;6274096;20;2859683;-55
2024/03/09 11:06:22;;;;;;;;;33.50;31.50;;;;;12.33;73.37;99613.72;6277473;20;2839934;-50
2024/03/09 11:08:54;;;;;;;;;43.67;35.33;;;;;11.77;74.17;99603.19;6275201;20;3597155;-54
2024/03/09 11:11:27;;;;;;;;;40.33;36.00;;;;;11.10;72.45;99603.16;6278312;20;3582629;-55
2024/03/09 11:14:05;;;;;;;;;38.00;31.67;;;;;11.23;68.37;99602.38;6268554;20;2856733;-53
2024/03/09 11:16:36;;;;;;;;;39.67;32.00;;;;;11.46;70.69;99587.41;6304871;20;2850446;-53